sensor_id;sensor_type;location;lat;lon;timestamp;P1;durP1;ratioP1;P2;durP2;ratioP2
51190;SDS011;37253;48.736;9.294;2022-07-29T00:01:06;3.80;;;2.90;;
51190;SDS011;37253;48.736;9.294;2022-07-29T00:03:07;2.83;;;2.60;;
51190;SDS011;37253;48.736;9.294;2022-07-29T00:05:07;6.65;;;2.85;;
51190;SDS011;37253;48.736;9.294;2022-07-29T00:07:08;3.83;;;2.70;;
51190;SDS011;37253;48.736;9.294;2022-07-29T00:09:08;4.30;;;2.90;;
51190;SDS011;37253;48.736;9.294;2022-07-29T00:11:09;6.85;;;3.28;;
51190;SDS011;37253;48.736;9.294;2022-07-29T00:13:09;4.28;;;2.70;;
51190;SDS011;37253;48.736;9.294;2022-07-29T00:15:10;4.75;;;2.67;;
51190;SDS011;37253;48.736;9.294;2022-07-29T00:17:10;5.45;;;2.72;;
51190;SDS011;37253;48.736;9.294;2022-07-29T00:19:10;6.00;;;2.80;;
51190;SDS011;37253;48.736;9.294;2022-07-29T00:21:10;4.05;;;2.65;;
51190;SDS011;37253;48.736;9.294;2022-07-29T00:23:11;4.93;;;2.47;;
51190;SDS011;37253;48.736;9.294;2022-07-29T00:25:11;2.97;;;2.63;;
51190;SDS011;37253;48.736;9.294;2022-07-29T00:27:12;3.38;;;2.58;;
51190;SDS011;37253;48.736;9.294;2022-07-29T00:29:12;4.60;;;2.67;;
51190;SDS011;37253;48.736;9.294;2022-07-29T00:31:12;5.97;;;2.97;;
51190;SDS011;37253;48.736;9.294;2022-07-29T00:33:13;5.13;;;2.85;;
51190;SDS011;37253;48.736;9.294;2022-07-29T00:35:13;5.05;;;2.33;;
51190;SDS011;37253;48.736;9.294;2022-07-29T00:37:32;5.68;;;2.60;;
51190;SDS011;37253;48.736;9.294;2022-07-29T00:39:32;3.40;;;2.25;;
51190;SDS011;37253;48.736;9.294;2022-07-29T00:41:33;3.60;;;2.28;;
51190;SDS011;37253;48.736;9.294;2022-07-29T00:43:33;3.60;;;2.60;;
51190;SDS011;37253;48.736;9.294;2022-07-29T00:45:33;5.38;;;2.90;;
51190;SDS011;37253;48.736;9.294;2022-07-29T00:47:34;4.57;;;2.50;;
51190;SDS011;37253;48.736;9.294;2022-07-29T00:49:34;6.93;;;2.50;;
51190;SDS011;37253;48.736;9.294;2022-07-29T00:51:35;3.85;;;2.25;;
51190;SDS011;37253;48.736;9.294;2022-07-29T00:53:36;3.45;;;2.55;;
51190;SDS011;37253;48.736;9.294;2022-07-29T00:55:37;5.53;;;2.75;;
51190;SDS011;37253;48.736;9.294;2022-07-29T00:57:37;2.83;;;2.50;;
51190;SDS011;37253;48.736;9.294;2022-07-29T00:59:38;3.30;;;2.38;;
51190;SDS011;37253;48.736;9.294;2022-07-29T01:01:39;3.97;;;2.53;;
51190;SDS011;37253;48.736;9.294;2022-07-29T01:03:39;9.88;;;2.88;;
51190;SDS011;37253;48.736;9.294;2022-07-29T01:05:40;3.60;;;2.35;;
51190;SDS011;37253;48.736;9.294;2022-07-29T01:07:41;2.97;;;2.70;;
51190;SDS011;37253;48.736;9.294;2022-07-29T01:09:41;2.50;;;2.28;;
51190;SDS011;37253;48.736;9.294;2022-07-29T01:11:42;4.93;;;2.47;;
51190;SDS011;37253;48.736;9.294;2022-07-29T01:13:43;4.65;;;2.53;;
51190;SDS011;37253;48.736;9.294;2022-07-29T01:15:46;4.28;;;2.47;;
51190;SDS011;37253;48.736;9.294;2022-07-29T01:18:03;2.50;;;2.20;;
51190;SDS011;37253;48.736;9.294;2022-07-29T01:20:20;3.92;;;2.47;;
51190;SDS011;37253;48.736;9.294;2022-07-29T01:29:58;3.45;;;2.20;;
51190;SDS011;37253;48.736;9.294;2022-07-29T01:32:07;4.32;;;2.60;;
51190;SDS011;37253;48.736;9.294;2022-07-29T01:34:10;3.60;;;2.70;;
51190;SDS011;37253;48.736;9.294;2022-07-29T01:36:12;4.00;;;2.10;;
51190;SDS011;37253;48.736;9.294;2022-07-29T01:40:22;2.80;;;2.50;;
51190;SDS011;37253;48.736;9.294;2022-07-29T01:42:29;2.55;;;2.13;;
51190;SDS011;37253;48.736;9.294;2022-07-29T01:44:32;5.07;;;2.40;;
51190;SDS011;37253;48.736;9.294;2022-07-29T01:48:47;3.67;;;2.50;;
51190;SDS011;37253;48.736;9.294;2022-07-29T01:50:52;3.15;;;2.20;;
51190;SDS011;37253;48.736;9.294;2022-07-29T01:52:59;5.25;;;2.67;;
51190;SDS011;37253;48.736;9.294;2022-07-29T01:55:03;4.72;;;2.25;;
51190;SDS011;37253;48.736;9.294;2022-07-29T01:57:06;4.72;;;2.17;;
51190;SDS011;37253;48.736;9.294;2022-07-29T01:59:08;4.55;;;2.65;;
51190;SDS011;37253;48.736;9.294;2022-07-29T02:01:09;3.38;;;2.67;;
51190;SDS011;37253;48.736;9.294;2022-07-29T02:03:11;9.15;;;2.10;;
51190;SDS011;37253;48.736;9.294;2022-07-29T02:05:12;2.97;;;2.25;;
51190;SDS011;37253;48.736;9.294;2022-07-29T02:09:19;9.63;;;2.30;;
51190;SDS011;37253;48.736;9.294;2022-07-29T02:11:21;8.82;;;2.30;;
51190;SDS011;37253;48.736;9.294;2022-07-29T02:13:21;4.63;;;2.75;;
51190;SDS011;37253;48.736;9.294;2022-07-29T02:15:26;3.35;;;2.25;;
51190;SDS011;37253;48.736;9.294;2022-07-29T02:17:31;3.67;;;2.38;;
51190;SDS011;37253;48.736;9.294;2022-07-29T02:19:33;6.03;;;2.45;;
51190;SDS011;37253;48.736;9.294;2022-07-29T02:21:34;3.45;;;2.20;;
51190;SDS011;37253;48.736;9.294;2022-07-29T02:23:35;2.50;;;2.30;;
51190;SDS011;37253;48.736;9.294;2022-07-29T02:25:37;3.33;;;2.30;;
51190;SDS011;37253;48.736;9.294;2022-07-29T02:27:37;5.85;;;2.53;;
51190;SDS011;37253;48.736;9.294;2022-07-29T02:29:39;4.38;;;2.10;;
51190;SDS011;37253;48.736;9.294;2022-07-29T02:31:39;3.13;;;2.05;;
51190;SDS011;37253;48.736;9.294;2022-07-29T02:33:43;7.97;;;2.10;;
51190;SDS011;37253;48.736;9.294;2022-07-29T02:35:44;7.43;;;2.42;;
51190;SDS011;37253;48.736;9.294;2022-07-29T02:37:45;7.32;;;2.40;;
51190;SDS011;37253;48.736;9.294;2022-07-29T02:40:08;7.07;;;2.80;;
51190;SDS011;37253;48.736;9.294;2022-07-29T02:42:10;4.07;;;2.17;;
51190;SDS011;37253;48.736;9.294;2022-07-29T02:44:16;6.93;;;2.50;;
51190;SDS011;37253;48.736;9.294;2022-07-29T02:46:25;2.85;;;2.00;;
51190;SDS011;37253;48.736;9.294;2022-07-29T02:48:31;6.68;;;2.22;;
51190;SDS011;37253;48.736;9.294;2022-07-29T02:50:36;2.97;;;2.45;;
51190;SDS011;37253;48.736;9.294;2022-07-29T02:52:42;6.95;;;2.22;;
51190;SDS011;37253;48.736;9.294;2022-07-29T02:57:22;4.97;;;2.10;;
51190;SDS011;37253;48.736;9.294;2022-07-29T02:59:29;4.45;;;1.92;;
51190;SDS011;37253;48.736;9.294;2022-07-29T03:01:31;5.82;;;2.22;;
51190;SDS011;37253;48.736;9.294;2022-07-29T03:03:34;4.18;;;2.10;;
51190;SDS011;37253;48.736;9.294;2022-07-29T03:05:36;3.63;;;2.10;;
51190;SDS011;37253;48.736;9.294;2022-07-29T03:07:37;3.83;;;2.63;;
51190;SDS011;37253;48.736;9.294;2022-07-29T03:09:38;2.40;;;1.90;;
51190;SDS011;37253;48.736;9.294;2022-07-29T03:11:39;4.93;;;2.20;;
51190;SDS011;37253;48.736;9.294;2022-07-29T03:13:41;2.72;;;1.85;;
51190;SDS011;37253;48.736;9.294;2022-07-29T03:15:44;2.50;;;2.10;;
51190;SDS011;37253;48.736;9.294;2022-07-29T03:19:45;3.85;;;2.22;;
51190;SDS011;37253;48.736;9.294;2022-07-29T03:21:46;3.13;;;1.85;;
51190;SDS011;37253;48.736;9.294;2022-07-29T03:23:46;5.28;;;2.00;;
51190;SDS011;37253;48.736;9.294;2022-07-29T03:25:47;5.80;;;1.88;;
51190;SDS011;37253;48.736;9.294;2022-07-29T03:27:47;6.63;;;2.20;;
51190;SDS011;37253;48.736;9.294;2022-07-29T03:29:48;3.72;;;2.13;;
51190;SDS011;37253;48.736;9.294;2022-07-29T03:31:48;2.90;;;1.67;;
51190;SDS011;37253;48.736;9.294;2022-07-29T03:33:48;5.53;;;1.75;;
51190;SDS011;37253;48.736;9.294;2022-07-29T03:35:48;3.58;;;2.13;;
51190;SDS011;37253;48.736;9.294;2022-07-29T03:37:49;3.13;;;1.85;;
51190;SDS011;37253;48.736;9.294;2022-07-29T03:39:49;3.70;;;2.00;;
51190;SDS011;37253;48.736;9.294;2022-07-29T03:41:52;5.35;;;2.30;;
51190;SDS011;37253;48.736;9.294;2022-07-29T03:43:54;2.67;;;1.80;;
51190;SDS011;37253;48.736;9.294;2022-07-29T03:45:56;7.13;;;2.10;;
51190;SDS011;37253;48.736;9.294;2022-07-29T03:47:59;5.15;;;2.00;;
51190;SDS011;37253;48.736;9.294;2022-07-29T03:50:02;2.97;;;1.70;;
51190;SDS011;37253;48.736;9.294;2022-07-29T03:52:06;5.78;;;1.95;;
51190;SDS011;37253;48.736;9.294;2022-07-29T03:54:06;3.38;;;2.00;;
51190;SDS011;37253;48.736;9.294;2022-07-29T03:56:07;4.10;;;1.85;;
51190;SDS011;37253;48.736;9.294;2022-07-29T03:58:09;3.58;;;2.05;;
51190;SDS011;37253;48.736;9.294;2022-07-29T04:00:10;8.00;;;2.20;;
51190;SDS011;37253;48.736;9.294;2022-07-29T04:02:10;5.95;;;3.05;;
51190;SDS011;37253;48.736;9.294;2022-07-29T04:04:11;7.00;;;2.28;;
51190;SDS011;37253;48.736;9.294;2022-07-29T04:06:11;4.82;;;2.17;;
51190;SDS011;37253;48.736;9.294;2022-07-29T04:08:12;2.78;;;1.80;;
51190;SDS011;37253;48.736;9.294;2022-07-29T04:10:13;3.13;;;2.10;;
51190;SDS011;37253;48.736;9.294;2022-07-29T04:12:15;3.08;;;1.83;;
51190;SDS011;37253;48.736;9.294;2022-07-29T04:14:15;5.90;;;1.90;;
51190;SDS011;37253;48.736;9.294;2022-07-29T04:16:16;4.45;;;1.70;;
51190;SDS011;37253;48.736;9.294;2022-07-29T04:18:16;6.65;;;2.10;;
51190;SDS011;37253;48.736;9.294;2022-07-29T04:20:16;3.72;;;1.80;;
51190;SDS011;37253;48.736;9.294;2022-07-29T04:22:17;3.65;;;2.20;;
51190;SDS011;37253;48.736;9.294;2022-07-29T04:24:17;3.22;;;1.73;;
51190;SDS011;37253;48.736;9.294;2022-07-29T04:26:18;3.70;;;2.35;;
51190;SDS011;37253;48.736;9.294;2022-07-29T04:28:18;4.97;;;1.88;;
51190;SDS011;37253;48.736;9.294;2022-07-29T04:30:19;5.75;;;1.83;;
51190;SDS011;37253;48.736;9.294;2022-07-29T04:32:19;2.00;;;1.75;;
51190;SDS011;37253;48.736;9.294;2022-07-29T04:34:19;2.58;;;1.90;;
51190;SDS011;37253;48.736;9.294;2022-07-29T04:36:20;5.25;;;1.88;;
51190;SDS011;37253;48.736;9.294;2022-07-29T04:38:20;4.97;;;1.70;;
51190;SDS011;37253;48.736;9.294;2022-07-29T04:40:22;5.30;;;1.50;;
51190;SDS011;37253;48.736;9.294;2022-07-29T04:42:22;3.80;;;1.77;;
51190;SDS011;37253;48.736;9.294;2022-07-29T04:44:22;4.53;;;1.80;;
51190;SDS011;37253;48.736;9.294;2022-07-29T04:46:23;4.53;;;1.73;;
51190;SDS011;37253;48.736;9.294;2022-07-29T04:48:23;3.75;;;1.95;;
51190;SDS011;37253;48.736;9.294;2022-07-29T04:50:23;6.78;;;2.03;;
51190;SDS011;37253;48.736;9.294;2022-07-29T04:52:24;4.65;;;1.90;;
51190;SDS011;37253;48.736;9.294;2022-07-29T04:54:24;5.80;;;1.90;;
51190;SDS011;37253;48.736;9.294;2022-07-29T04:56:24;3.70;;;2.00;;
51190;SDS011;37253;48.736;9.294;2022-07-29T04:58:25;6.90;;;1.98;;
51190;SDS011;37253;48.736;9.294;2022-07-29T05:00:26;4.90;;;1.98;;
51190;SDS011;37253;48.736;9.294;2022-07-29T05:02:26;7.35;;;2.00;;
51190;SDS011;37253;48.736;9.294;2022-07-29T05:04:26;3.95;;;1.67;;
51190;SDS011;37253;48.736;9.294;2022-07-29T05:06:27;5.95;;;1.80;;
51190;SDS011;37253;48.736;9.294;2022-07-29T05:08:27;2.97;;;1.73;;
51190;SDS011;37253;48.736;9.294;2022-07-29T05:10:27;5.72;;;2.00;;
51190;SDS011;37253;48.736;9.294;2022-07-29T05:12:28;4.95;;;1.90;;
51190;SDS011;37253;48.736;9.294;2022-07-29T05:14:29;5.10;;;1.63;;
51190;SDS011;37253;48.736;9.294;2022-07-29T05:16:29;5.10;;;2.00;;
51190;SDS011;37253;48.736;9.294;2022-07-29T05:18:29;9.13;;;1.88;;
51190;SDS011;37253;48.736;9.294;2022-07-29T05:20:30;15.02;;;2.13;;
51190;SDS011;37253;48.736;9.294;2022-07-29T05:22:31;2.25;;;1.90;;
51190;SDS011;37253;48.736;9.294;2022-07-29T05:24:31;3.00;;;1.80;;
51190;SDS011;37253;48.736;9.294;2022-07-29T05:26:31;4.88;;;1.75;;
51190;SDS011;37253;48.736;9.294;2022-07-29T05:28:35;8.02;;;1.80;;
51190;SDS011;37253;48.736;9.294;2022-07-29T05:30:35;3.90;;;2.08;;
51190;SDS011;37253;48.736;9.294;2022-07-29T05:32:35;3.20;;;2.35;;
51190;SDS011;37253;48.736;9.294;2022-07-29T05:34:36;4.82;;;1.98;;
51190;SDS011;37253;48.736;9.294;2022-07-29T05:36:36;6.60;;;1.60;;
51190;SDS011;37253;48.736;9.294;2022-07-29T05:38:36;7.18;;;2.03;;
51190;SDS011;37253;48.736;9.294;2022-07-29T05:40:37;3.42;;;2.08;;
51190;SDS011;37253;48.736;9.294;2022-07-29T05:42:37;3.42;;;2.00;;
51190;SDS011;37253;48.736;9.294;2022-07-29T05:44:38;4.18;;;2.17;;
51190;SDS011;37253;48.736;9.294;2022-07-29T05:46:39;5.40;;;2.42;;
51190;SDS011;37253;48.736;9.294;2022-07-29T05:48:39;5.28;;;1.77;;
51190;SDS011;37253;48.736;9.294;2022-07-29T05:50:39;3.35;;;2.00;;
51190;SDS011;37253;48.736;9.294;2022-07-29T05:52:40;5.60;;;1.90;;
51190;SDS011;37253;48.736;9.294;2022-07-29T05:54:40;6.35;;;2.15;;
51190;SDS011;37253;48.736;9.294;2022-07-29T05:56:40;6.07;;;2.30;;
51190;SDS011;37253;48.736;9.294;2022-07-29T05:58:41;2.72;;;2.00;;
51190;SDS011;37253;48.736;9.294;2022-07-29T06:00:41;6.88;;;2.38;;
51190;SDS011;37253;48.736;9.294;2022-07-29T06:02:42;7.50;;;2.50;;
51190;SDS011;37253;48.736;9.294;2022-07-29T06:04:42;4.32;;;2.60;;
51190;SDS011;37253;48.736;9.294;2022-07-29T06:06:43;4.43;;;2.40;;
51190;SDS011;37253;48.736;9.294;2022-07-29T06:08:43;6.70;;;3.05;;
51190;SDS011;37253;48.736;9.294;2022-07-29T06:10:43;4.75;;;2.92;;
51190;SDS011;37253;48.736;9.294;2022-07-29T06:12:45;3.90;;;2.53;;
51190;SDS011;37253;48.736;9.294;2022-07-29T06:14:45;4.82;;;2.78;;
51190;SDS011;37253;48.736;9.294;2022-07-29T06:16:46;6.32;;;2.80;;
51190;SDS011;37253;48.736;9.294;2022-07-29T06:18:46;9.93;;;2.45;;
51190;SDS011;37253;48.736;9.294;2022-07-29T06:20:46;5.95;;;2.67;;
51190;SDS011;37253;48.736;9.294;2022-07-29T06:22:47;5.03;;;2.45;;
51190;SDS011;37253;48.736;9.294;2022-07-29T06:24:47;4.57;;;2.40;;
51190;SDS011;37253;48.736;9.294;2022-07-29T06:26:47;4.93;;;2.83;;
51190;SDS011;37253;48.736;9.294;2022-07-29T06:28:48;3.72;;;2.60;;
51190;SDS011;37253;48.736;9.294;2022-07-29T06:30:48;3.83;;;2.10;;
51190;SDS011;37253;48.736;9.294;2022-07-29T06:32:49;4.93;;;2.72;;
51190;SDS011;37253;48.736;9.294;2022-07-29T06:34:49;9.13;;;2.63;;
51190;SDS011;37253;48.736;9.294;2022-07-29T06:36:50;5.30;;;2.80;;
51190;SDS011;37253;48.736;9.294;2022-07-29T06:38:50;5.28;;;2.63;;
51190;SDS011;37253;48.736;9.294;2022-07-29T06:40:50;4.75;;;2.53;;
51190;SDS011;37253;48.736;9.294;2022-07-29T06:42:59;5.07;;;2.60;;
51190;SDS011;37253;48.736;9.294;2022-07-29T06:45:00;6.07;;;2.78;;
51190;SDS011;37253;48.736;9.294;2022-07-29T06:47:00;10.93;;;2.88;;
51190;SDS011;37253;48.736;9.294;2022-07-29T06:49:00;5.55;;;2.42;;
51190;SDS011;37253;48.736;9.294;2022-07-29T06:51:02;5.22;;;2.90;;
51190;SDS011;37253;48.736;9.294;2022-07-29T06:53:03;9.38;;;3.03;;
51190;SDS011;37253;48.736;9.294;2022-07-29T06:55:04;6.57;;;2.40;;
51190;SDS011;37253;48.736;9.294;2022-07-29T06:57:04;9.48;;;2.53;;
51190;SDS011;37253;48.736;9.294;2022-07-29T06:59:09;5.43;;;2.55;;
51190;SDS011;37253;48.736;9.294;2022-07-29T07:01:10;3.25;;;2.40;;
51190;SDS011;37253;48.736;9.294;2022-07-29T07:03:10;4.82;;;2.30;;
51190;SDS011;37253;48.736;9.294;2022-07-29T07:05:11;5.13;;;2.70;;
51190;SDS011;37253;48.736;9.294;2022-07-29T07:07:11;4.70;;;2.47;;
51190;SDS011;37253;48.736;9.294;2022-07-29T07:09:12;3.67;;;2.35;;
51190;SDS011;37253;48.736;9.294;2022-07-29T07:11:12;3.45;;;2.40;;
51190;SDS011;37253;48.736;9.294;2022-07-29T07:13:12;4.30;;;2.45;;
51190;SDS011;37253;48.736;9.294;2022-07-29T07:15:13;6.32;;;2.05;;
51190;SDS011;37253;48.736;9.294;2022-07-29T07:17:13;5.55;;;2.22;;
51190;SDS011;37253;48.736;9.294;2022-07-29T07:19:14;3.58;;;2.47;;
51190;SDS011;37253;48.736;9.294;2022-07-29T07:21:15;3.60;;;2.25;;
51190;SDS011;37253;48.736;9.294;2022-07-29T07:23:15;3.42;;;2.63;;
51190;SDS011;37253;48.736;9.294;2022-07-29T07:25:15;4.80;;;2.25;;
51190;SDS011;37253;48.736;9.294;2022-07-29T07:27:17;2.65;;;2.10;;
51190;SDS011;37253;48.736;9.294;2022-07-29T07:29:17;3.78;;;2.28;;
51190;SDS011;37253;48.736;9.294;2022-07-29T07:31:17;4.80;;;2.40;;
51190;SDS011;37253;48.736;9.294;2022-07-29T07:33:18;3.17;;;2.10;;
51190;SDS011;37253;48.736;9.294;2022-07-29T07:35:18;3.17;;;2.13;;
51190;SDS011;37253;48.736;9.294;2022-07-29T07:37:19;4.68;;;2.42;;
51190;SDS011;37253;48.736;9.294;2022-07-29T07:39:20;10.27;;;2.40;;
51190;SDS011;37253;48.736;9.294;2022-07-29T07:41:21;4.22;;;2.33;;
51190;SDS011;37253;48.736;9.294;2022-07-29T07:43:21;4.10;;;2.00;;
51190;SDS011;37253;48.736;9.294;2022-07-29T07:45:22;3.83;;;2.47;;
51190;SDS011;37253;48.736;9.294;2022-07-29T07:47:22;3.47;;;2.38;;
51190;SDS011;37253;48.736;9.294;2022-07-29T07:49:24;5.05;;;2.42;;
51190;SDS011;37253;48.736;9.294;2022-07-29T07:51:24;8.23;;;2.50;;
51190;SDS011;37253;48.736;9.294;2022-07-29T07:53:25;3.83;;;2.53;;
51190;SDS011;37253;48.736;9.294;2022-07-29T07:55:25;5.18;;;2.50;;
51190;SDS011;37253;48.736;9.294;2022-07-29T07:57:26;7.20;;;2.25;;
51190;SDS011;37253;48.736;9.294;2022-07-29T07:59:26;4.07;;;2.53;;
51190;SDS011;37253;48.736;9.294;2022-07-29T08:01:26;2.60;;;2.38;;
51190;SDS011;37253;48.736;9.294;2022-07-29T08:03:26;5.40;;;2.42;;
51190;SDS011;37253;48.736;9.294;2022-07-29T08:05:27;4.03;;;2.20;;
51190;SDS011;37253;48.736;9.294;2022-07-29T08:07:27;3.17;;;2.17;;
51190;SDS011;37253;48.736;9.294;2022-07-29T08:09:29;4.10;;;2.58;;
51190;SDS011;37253;48.736;9.294;2022-07-29T08:11:29;3.25;;;2.50;;
51190;SDS011;37253;48.736;9.294;2022-07-29T08:13:30;3.83;;;2.40;;
51190;SDS011;37253;48.736;9.294;2022-07-29T08:15:31;3.13;;;2.38;;
51190;SDS011;37253;48.736;9.294;2022-07-29T08:17:32;3.00;;;2.38;;
51190;SDS011;37253;48.736;9.294;2022-07-29T08:19:32;3.20;;;2.33;;
51190;SDS011;37253;48.736;9.294;2022-07-29T08:21:33;6.30;;;2.20;;
51190;SDS011;37253;48.736;9.294;2022-07-29T08:23:33;4.38;;;2.63;;
51190;SDS011;37253;48.736;9.294;2022-07-29T08:25:39;3.63;;;2.60;;
51190;SDS011;37253;48.736;9.294;2022-07-29T08:27:39;3.28;;;2.47;;
51190;SDS011;37253;48.736;9.294;2022-07-29T08:29:40;5.15;;;3.47;;
51190;SDS011;37253;48.736;9.294;2022-07-29T08:31:40;4.43;;;2.40;;
51190;SDS011;37253;48.736;9.294;2022-07-29T08:33:41;5.45;;;2.03;;
51190;SDS011;37253;48.736;9.294;2022-07-29T08:35:41;2.60;;;2.40;;
51190;SDS011;37253;48.736;9.294;2022-07-29T08:37:42;3.92;;;2.25;;
51190;SDS011;37253;48.736;9.294;2022-07-29T08:39:42;5.57;;;2.70;;
51190;SDS011;37253;48.736;9.294;2022-07-29T08:41:42;4.32;;;2.47;;
51190;SDS011;37253;48.736;9.294;2022-07-29T08:43:43;6.80;;;2.38;;
51190;SDS011;37253;48.736;9.294;2022-07-29T08:45:44;5.65;;;2.22;;
51190;SDS011;37253;48.736;9.294;2022-07-29T08:47:46;5.25;;;2.38;;
51190;SDS011;37253;48.736;9.294;2022-07-29T08:49:46;3.53;;;2.40;;
51190;SDS011;37253;48.736;9.294;2022-07-29T08:51:48;2.60;;;2.40;;
51190;SDS011;37253;48.736;9.294;2022-07-29T08:53:49;5.25;;;2.35;;
51190;SDS011;37253;48.736;9.294;2022-07-29T08:55:50;4.28;;;2.35;;
51190;SDS011;37253;48.736;9.294;2022-07-29T08:57:50;3.42;;;2.70;;
51190;SDS011;37253;48.736;9.294;2022-07-29T08:59:51;5.20;;;2.65;;
51190;SDS011;37253;48.736;9.294;2022-07-29T09:01:52;4.40;;;2.47;;
51190;SDS011;37253;48.736;9.294;2022-07-29T09:03:54;5.28;;;2.75;;
51190;SDS011;37253;48.736;9.294;2022-07-29T09:05:55;4.45;;;2.72;;
51190;SDS011;37253;48.736;9.294;2022-07-29T09:07:55;3.22;;;2.65;;
51190;SDS011;37253;48.736;9.294;2022-07-29T09:09:56;4.10;;;2.75;;
51190;SDS011;37253;48.736;9.294;2022-07-29T09:11:57;3.25;;;2.70;;
51190;SDS011;37253;48.736;9.294;2022-07-29T09:13:58;4.88;;;2.90;;
51190;SDS011;37253;48.736;9.294;2022-07-29T09:15:59;2.83;;;2.30;;
51190;SDS011;37253;48.736;9.294;2022-07-29T09:17:59;3.53;;;2.75;;
51190;SDS011;37253;48.736;9.294;2022-07-29T09:20:07;3.70;;;2.70;;
51190;SDS011;37253;48.736;9.294;2022-07-29T09:22:12;2.95;;;2.63;;
51190;SDS011;37253;48.736;9.294;2022-07-29T09:26:40;5.05;;;2.90;;
51190;SDS011;37253;48.736;9.294;2022-07-29T09:28:41;3.22;;;2.47;;
51190;SDS011;37253;48.736;9.294;2022-07-29T09:30:55;2.83;;;2.60;;
51190;SDS011;37253;48.736;9.294;2022-07-29T09:32:57;6.53;;;2.75;;
51190;SDS011;37253;48.736;9.294;2022-07-29T09:35:16;2.78;;;2.53;;
51190;SDS011;37253;48.736;9.294;2022-07-29T09:37:28;5.47;;;2.70;;
51190;SDS011;37253;48.736;9.294;2022-07-29T09:41:48;3.78;;;3.00;;
51190;SDS011;37253;48.736;9.294;2022-07-29T09:43:56;4.28;;;3.30;;
51190;SDS011;37253;48.736;9.294;2022-07-29T09:46:09;2.78;;;2.58;;
51190;SDS011;37253;48.736;9.294;2022-07-29T09:48:17;2.95;;;2.65;;
51190;SDS011;37253;48.736;9.294;2022-07-29T09:50:21;2.90;;;2.60;;
51190;SDS011;37253;48.736;9.294;2022-07-29T09:52:26;4.95;;;3.10;;
51190;SDS011;37253;48.736;9.294;2022-07-29T09:54:27;3.73;;;2.80;;
51190;SDS011;37253;48.736;9.294;2022-07-29T09:56:40;3.10;;;2.80;;
51190;SDS011;37253;48.736;9.294;2022-07-29T10:00:42;4.75;;;3.38;;
51190;SDS011;37253;48.736;9.294;2022-07-29T10:02:43;4.15;;;3.78;;
51190;SDS011;37253;48.736;9.294;2022-07-29T10:04:44;4.45;;;3.00;;
51190;SDS011;37253;48.736;9.294;2022-07-29T10:07:01;3.72;;;2.90;;
51190;SDS011;37253;48.736;9.294;2022-07-29T10:09:08;6.20;;;2.97;;
51190;SDS011;37253;48.736;9.294;2022-07-29T10:11:10;5.45;;;3.10;;
51190;SDS011;37253;48.736;9.294;2022-07-29T10:13:12;5.20;;;3.30;;
51190;SDS011;37253;48.736;9.294;2022-07-29T10:15:13;3.42;;;3.13;;
51190;SDS011;37253;48.736;9.294;2022-07-29T10:17:15;3.25;;;2.75;;
51190;SDS011;37253;48.736;9.294;2022-07-29T10:19:16;3.65;;;3.22;;
51190;SDS011;37253;48.736;9.294;2022-07-29T10:21:16;5.85;;;3.03;;
51190;SDS011;37253;48.736;9.294;2022-07-29T10:23:17;3.40;;;3.10;;
51190;SDS011;37253;48.736;9.294;2022-07-29T10:25:18;3.65;;;3.22;;
51190;SDS011;37253;48.736;9.294;2022-07-29T10:27:18;3.50;;;3.20;;
51190;SDS011;37253;48.736;9.294;2022-07-29T10:29:19;3.45;;;3.15;;
51190;SDS011;37253;48.736;9.294;2022-07-29T10:31:22;5.13;;;3.35;;
51190;SDS011;37253;48.736;9.294;2022-07-29T10:33:35;4.82;;;3.25;;
51190;SDS011;37253;48.736;9.294;2022-07-29T10:35:47;5.22;;;2.88;;
51190;SDS011;37253;48.736;9.294;2022-07-29T10:40:32;3.45;;;3.10;;
51190;SDS011;37253;48.736;9.294;2022-07-29T10:43:17;3.80;;;3.15;;
51190;SDS011;37253;48.736;9.294;2022-07-29T10:45:22;5.63;;;3.42;;
51190;SDS011;37253;48.736;9.294;2022-07-29T10:47:23;4.30;;;3.53;;
51190;SDS011;37253;48.736;9.294;2022-07-29T10:49:25;4.93;;;3.30;;
51190;SDS011;37253;48.736;9.294;2022-07-29T10:51:33;4.20;;;3.78;;
51190;SDS011;37253;48.736;9.294;2022-07-29T10:53:50;4.18;;;3.30;;
51190;SDS011;37253;48.736;9.294;2022-07-29T10:55:51;4.05;;;3.50;;
51190;SDS011;37253;48.736;9.294;2022-07-29T10:58:10;4.20;;;3.70;;
51190;SDS011;37253;48.736;9.294;2022-07-29T11:09:17;5.38;;;3.90;;
51190;SDS011;37253;48.736;9.294;2022-07-29T11:15:56;3.97;;;3.65;;
51190;SDS011;37253;48.736;9.294;2022-07-29T11:22:35;5.22;;;3.78;;
51190;SDS011;37253;48.736;9.294;2022-07-29T11:24:37;4.30;;;3.80;;
51190;SDS011;37253;48.736;9.294;2022-07-29T11:26:37;7.57;;;3.88;;
51190;SDS011;37253;48.736;9.294;2022-07-29T11:29:23;4.20;;;3.80;;
51190;SDS011;37253;48.736;9.294;2022-07-29T11:31:29;9.95;;;3.58;;
51190;SDS011;37253;48.736;9.294;2022-07-29T11:33:34;7.05;;;3.17;;
51190;SDS011;37253;48.736;9.294;2022-07-29T11:35:35;8.43;;;3.55;;
51190;SDS011;37253;48.736;9.294;2022-07-29T11:37:36;5.40;;;3.97;;
51190;SDS011;37253;48.736;9.294;2022-07-29T11:39:37;6.47;;;3.88;;
51190;SDS011;37253;48.736;9.294;2022-07-29T11:44:16;15.10;;;3.85;;
51190;SDS011;37253;48.736;9.294;2022-07-29T11:48:48;15.82;;;3.60;;
51190;SDS011;37253;48.736;9.294;2022-07-29T11:50:49;12.40;;;3.65;;
51190;SDS011;37253;48.736;9.294;2022-07-29T11:52:49;11.95;;;3.60;;
51190;SDS011;37253;48.736;9.294;2022-07-29T11:54:50;9.80;;;4.35;;
51190;SDS011;37253;48.736;9.294;2022-07-29T11:56:51;14.63;;;3.88;;
51190;SDS011;37253;48.736;9.294;2022-07-29T11:59:04;6.57;;;3.25;;
51190;SDS011;37253;48.736;9.294;2022-07-29T12:01:06;10.60;;;3.25;;
51190;SDS011;37253;48.736;9.294;2022-07-29T12:03:07;10.45;;;2.58;;
51190;SDS011;37253;48.736;9.294;2022-07-29T12:05:09;8.68;;;2.58;;
51190;SDS011;37253;48.736;9.294;2022-07-29T12:07:12;6.57;;;2.50;;
51190;SDS011;37253;48.736;9.294;2022-07-29T12:09:13;10.85;;;2.55;;
51190;SDS011;37253;48.736;9.294;2022-07-29T12:11:15;9.32;;;3.05;;
51190;SDS011;37253;48.736;9.294;2022-07-29T12:13:17;7.07;;;2.70;;
51190;SDS011;37253;48.736;9.294;2022-07-29T12:15:18;8.93;;;3.30;;
51190;SDS011;37253;48.736;9.294;2022-07-29T12:17:33;5.22;;;2.65;;
51190;SDS011;37253;48.736;9.294;2022-07-29T12:19:41;6.22;;;2.95;;
51190;SDS011;37253;48.736;9.294;2022-07-29T12:21:49;10.98;;;2.47;;
51190;SDS011;37253;48.736;9.294;2022-07-29T12:23:52;6.88;;;2.58;;
51190;SDS011;37253;48.736;9.294;2022-07-29T12:25:57;4.47;;;2.22;;
51190;SDS011;37253;48.736;9.294;2022-07-29T12:27:58;8.68;;;2.85;;
51190;SDS011;37253;48.736;9.294;2022-07-29T12:30:02;9.18;;;2.47;;
51190;SDS011;37253;48.736;9.294;2022-07-29T12:32:04;7.28;;;2.65;;
51190;SDS011;37253;48.736;9.294;2022-07-29T12:34:06;7.80;;;2.20;;
51190;SDS011;37253;48.736;9.294;2022-07-29T12:36:06;7.90;;;2.45;;
51190;SDS011;37253;48.736;9.294;2022-07-29T12:38:09;7.78;;;2.72;;
51190;SDS011;37253;48.736;9.294;2022-07-29T12:40:11;6.53;;;2.75;;
51190;SDS011;37253;48.736;9.294;2022-07-29T12:42:13;6.73;;;2.23;;
51190;SDS011;37253;48.736;9.294;2022-07-29T12:44:14;5.22;;;2.22;;
51190;SDS011;37253;48.736;9.294;2022-07-29T12:46:15;8.70;;;2.95;;
51190;SDS011;37253;48.736;9.294;2022-07-29T12:48:16;4.22;;;2.28;;
51190;SDS011;37253;48.736;9.294;2022-07-29T12:50:17;10.07;;;2.60;;
51190;SDS011;37253;48.736;9.294;2022-07-29T12:52:25;6.05;;;2.30;;
51190;SDS011;37253;48.736;9.294;2022-07-29T12:54:33;4.88;;;2.45;;
51190;SDS011;37253;48.736;9.294;2022-07-29T12:56:33;7.78;;;2.85;;
51190;SDS011;37253;48.736;9.294;2022-07-29T12:58:34;3.85;;;2.28;;
51190;SDS011;37253;48.736;9.294;2022-07-29T13:02:37;3.85;;;2.30;;
51190;SDS011;37253;48.736;9.294;2022-07-29T13:04:38;3.47;;;2.00;;
51190;SDS011;37253;48.736;9.294;2022-07-29T13:06:40;3.13;;;1.90;;
51190;SDS011;37253;48.736;9.294;2022-07-29T13:08:57;6.70;;;2.25;;
51190;SDS011;37253;48.736;9.294;2022-07-29T13:10:58;4.93;;;2.50;;